Time;durP1;ratioP1;P1;durP2;ratioP2;P2;SDS_P1;SDS_P2;PMS_P1;PMS_P2;Temp;Humidity;BMP_temperature;BMP_pressure;BME280_temperature;BME280_humidity;BME280_pressure;Samples;Min_cycle;Max_cycle;Signal;HPM_P1;HPM_P2
2021/03/27 00:04:12;;;;;;;8.40;7.23;;;12.30;26.50;;;;;;10403503;28;20233;-69
2021/03/27 00:09:34;;;;;;;8.57;7.13;;;12.20;26.90;;;;;;10403803;28;20331;-68
2021/03/27 00:14:44;;;;;;;8.17;7.37;;;12.10;27.10;;;;;;10400008;28;20236;-68
2021/03/27 00:20:12;;;;;;;7.77;6.97;;;12.00;27.20;;;;;;10400502;28;20234;-68
2021/03/27 00:25:19;;;;;;;9.37;7.43;;;11.90;27.50;;;;;;10406195;28;21020;-68
2021/03/27 00:30:26;;;;;;;9.77;7.37;;;11.80;27.50;;;;;;10398899;28;20237;-68
2021/03/27 00:35:32;;;;;;;8.43;7.57;;;11.80;27.50;;;;;;10405359;28;20230;-68
2021/03/27 00:40:42;;;;;;;9.70;7.57;;;11.80;27.70;;;;;;10406723;28;20221;-68
2021/03/27 00:45:48;;;;;;;8.23;7.30;;;11.90;28.00;;;;;;10385583;28;20230;-68
2021/03/27 00:50:55;;;;;;;10.53;7.93;;;12.00;27.70;;;;;;10396125;28;20226;-68
2021/03/27 00:56:09;;;;;;;9.80;7.23;;;12.10;27.80;;;;;;10410156;28;20312;-68
2021/03/27 01:01:13;;;;;;;9.40;7.43;;;12.20;27.80;;;;;;10400372;28;20226;-68
2021/03/27 01:06:22;;;;;;;9.37;7.10;;;12.20;27.90;;;;;;10409457;28;20732;-68
2021/03/27 01:11:30;;;;;;;7.87;7.07;;;12.30;28.10;;;;;;10395159;28;20353;-68
2021/03/27 01:16:38;;;;;;;10.73;8.33;;;12.40;28.20;;;;;;10403640;28;20316;-68
2021/03/27 01:21:43;;;;;;;12.93;10.67;;;12.50;28.20;;;;;;10409538;28;20308;-68
2021/03/27 01:26:49;;;;;;;9.10;7.67;;;12.60;28.00;;;;;;10382476;28;20609;-68
2021/03/27 01:31:54;;;;;;;9.90;7.13;;;12.60;28.20;;;;;;10403533;28;20608;-68
2021/03/27 01:37:05;;;;;;;7.93;7.13;;;12.70;28.00;;;;;;10401949;28;20316;-68
2021/03/27 01:42:16;;;;;;;7.87;6.87;;;12.80;28.10;;;;;;10404625;28;20225;-68
2021/03/27 01:47:27;;;;;;;7.73;6.93;;;12.80;28.50;;;;;;10381461;28;20229;-68
2021/03/27 01:52:39;;;;;;;9.33;7.10;;;12.90;28.30;;;;;;10406653;28;20312;-68
2021/03/27 01:57:49;;;;;;;7.57;6.73;;;12.90;28.40;;;;;;10399315;28;20300;-68
2021/03/27 02:02:59;;;;;;;9.63;7.47;;;13.00;28.60;;;;;;10407902;28;20631;-68
2021/03/27 02:08:11;;;;;;;7.83;7.10;;;13.00;28.40;;;;;;10381573;28;20234;-68
2021/03/27 02:13:29;;;;;;;7.60;6.90;;;13.00;28.50;;;;;;10366275;28;20586;-68
2021/03/27 02:18:41;;;;;;;6.47;5.87;;;13.00;28.70;;;;;;10364757;28;20608;-68
2021/03/27 02:24:07;;;;;;;8.20;6.83;;;13.00;28.60;;;;;;10360749;28;20642;-68
2021/03/27 02:29:45;;;;;;;6.50;5.60;;;13.10;28.80;;;;;;10364182;28;20297;-71
2021/03/27 02:34:53;;;;;;;7.47;6.20;;;13.00;28.40;;;;;;10363802;28;20226;-70
2021/03/27 02:39:59;;;;;;;9.10;6.47;;;13.00;28.30;;;;;;10363820;28;20312;-70
2021/03/27 02:45:09;;;;;;;6.77;6.10;;;13.20;28.60;;;;;;10372590;28;20232;-70
2021/03/27 02:50:24;;;;;;;7.57;6.80;;;13.30;28.90;;;;;;10371499;28;20236;-70
2021/03/27 02:55:32;;;;;;;6.70;6.10;;;13.40;29.10;;;;;;10406578;28;20234;-70
2021/03/27 03:00:45;;;;;;;6.73;6.13;;;13.50;28.70;;;;;;10388496;28;20308;-70
2021/03/27 03:05:51;;;;;;;6.40;5.80;;;13.60;29.10;;;;;;10407313;28;20256;-70
2021/03/27 03:11:03;;;;;;;7.37;5.73;;;13.60;28.60;;;;;;10412876;28;20240;-70
2021/03/27 03:16:14;;;;;;;7.07;5.17;;;13.70;29.00;;;;;;10396753;28;20245;-70
2021/03/27 03:21:25;;;;;;;6.20;5.60;;;13.70;28.80;;;;;;10399367;28;20236;-70
2021/03/27 03:26:36;;;;;;;7.00;5.30;;;13.80;28.80;;;;;;10396345;28;20230;-70
2021/03/27 03:31:59;;;;;;;5.73;5.10;;;13.80;28.80;;;;;;10401427;28;20222;-70
2021/03/27 03:37:10;;;;;;;5.17;4.67;;;13.80;29.10;;;;;;10378894;28;20232;-71
2021/03/27 03:42:32;;;;;;;5.63;4.70;;;13.80;29.10;;;;;;10364149;28;20230;-70
2021/03/27 03:47:47;;;;;;;5.13;4.70;;;13.80;29.20;;;;;;10369558;28;20234;-70
2021/03/27 03:53:12;;;;;;;4.57;4.17;;;13.80;29.20;;;;;;10365330;28;20223;-70
2021/03/27 03:58:32;;;;;;;5.07;4.57;;;13.80;29.30;;;;;;10370161;28;20225;-70
2021/03/27 04:03:41;;;;;;;5.33;4.70;;;13.70;29.20;;;;;;10368980;28;20288;-70
2021/03/27 04:08:51;;;;;;;5.20;4.70;;;13.70;29.20;;;;;;10368161;28;20285;-70
2021/03/27 04:13:55;;;;;;;4.97;4.57;;;13.70;29.10;;;;;;10370000;28;20728;-70
2021/03/27 04:19:03;;;;;;;4.60;4.20;;;13.60;29.00;;;;;;10369781;28;20731;-70
2021/03/27 04:24:11;;;;;;;4.23;3.83;;;13.60;29.60;;;;;;10389689;28;20214;-70
2021/03/27 04:29:27;;;;;;;4.20;3.80;;;13.60;29.50;;;;;;10373443;28;20233;-70
2021/03/27 04:34:35;;;;;;;6.17;4.10;;;13.60;29.50;;;;;;10376271;28;20230;-70
2021/03/27 04:39:47;;;;;;;4.13;3.73;;;13.60;30.30;;;;;;10366143;28;20309;-70
2021/03/27 04:45:03;;;;;;;3.70;3.40;;;13.70;31.00;;;;;;10371066;28;20227;-69
2021/03/27 04:50:20;;;;;;;3.43;3.13;;;13.70;31.00;;;;;;10407319;28;20231;-70
2021/03/27 04:55:30;;;;;;;3.97;3.43;;;13.70;32.80;;;;;;10365227;28;20229;-68
2021/03/27 05:00:49;;;;;;;3.37;3.07;;;13.60;33.20;;;;;;10364549;28;20238;-68
2021/03/27 05:06:05;;;;;;;3.90;3.60;;;13.50;34.50;;;;;;10367077;28;20222;-68
2021/03/27 05:11:22;;;;;;;3.63;3.33;;;13.30;34.50;;;;;;10364973;28;20241;-68
2021/03/27 05:16:30;;;;;;;4.50;3.40;;;13.20;35.30;;;;;;10368043;28;20611;-68
2021/03/27 05:22:05;;;;;;;3.10;2.90;;;13.20;34.80;;;;;;10363247;28;20285;-68
2021/03/27 05:27:21;;;;;;;3.07;2.77;;;13.00;36.20;;;;;;10360496;28;20237;-68
2021/03/27 05:32:45;;;;;;;3.67;2.83;;;13.00;35.20;;;;;;10367262;28;20242;-68
2021/03/27 05:38:02;;;;;;;2.83;2.63;;;12.90;34.80;;;;;;10362902;28;20234;-68
2021/03/27 05:43:36;;;;;;;2.60;2.40;;;12.90;35.10;;;;;;10357497;28;20690;-68
2021/03/27 05:49:18;;;;;;;2.10;2.00;;;12.90;35.40;;;;;;10362983;28;20675;-68
2021/03/27 05:54:59;;;;;;;2.20;2.00;;;12.90;35.40;;;;;;10364281;28;20597;-68
2021/03/27 06:00:28;;;;;;;2.40;2.20;;;12.90;35.90;;;;;;10344286;28;20313;-69
2021/03/27 06:05:40;;;;;;;1.83;1.73;;;12.90;35.80;;;;;;10365408;28;20318;-68
2021/03/27 06:11:18;;;;;;;2.00;1.87;;;12.90;35.50;;;;;;10357809;28;20237;-68
2021/03/27 06:16:56;;;;;;;2.10;1.90;;;12.90;36.20;;;;;;10400319;28;20229;-68
2021/03/27 06:22:29;;;;;;;3.13;1.90;;;12.80;36.10;;;;;;10413615;28;20705;-69
2021/03/27 06:27:53;;;;;;;1.93;1.80;;;12.70;35.80;;;;;;10421481;28;20658;-68
2021/03/27 06:33:35;;;;;;;2.50;1.80;;;12.70;35.40;;;;;;10415390;28;20218;-68
2021/03/27 06:39:24;;;;;;;3.73;2.90;;;12.70;35.00;;;;;;10395822;28;20225;-68
2021/03/27 06:44:57;;;;;;;2.57;2.37;;;12.80;35.40;;;;;;10381509;28;20766;-68
2021/03/27 06:50:21;;;;;;;2.70;2.50;;;12.80;35.50;;;;;;10401111;28;20244;-68
2021/03/27 06:55:32;;;;;;;1.80;1.47;;;12.80;35.20;;;;;;10366432;28;20228;-68
2021/03/27 07:00:52;;;;;;;1.30;1.20;;;12.80;34.90;;;;;;10372985;28;20603;-68
2021/03/27 07:06:33;;;;;;;0.90;0.90;;;12.70;34.40;;;;;;10367383;28;20616;-68
2021/03/27 07:11:45;;;;;;;1.73;1.00;;;12.30;34.30;;;;;;10355858;28;20238;-69
2021/03/27 07:17:04;;;;;;;0.70;0.70;;;12.00;34.40;;;;;;10370194;28;20231;-69
2021/03/27 07:22:26;;;;;;;0.77;0.70;;;11.70;33.20;;;;;;10401011;28;20232;-68
2021/03/27 07:28:13;;;;;;;1.43;0.70;;;11.60;33.40;;;;;;10412840;28;20618;-68
2021/03/27 07:33:38;;;;;;;0.57;0.57;;;11.30;33.50;;;;;;10368723;28;20717;-68
2021/03/27 07:38:47;;;;;;;0.57;0.57;;;11.20;34.80;;;;;;10366226;28;20385;-68
2021/03/27 07:44:29;;;;;;;1.43;0.70;;;11.10;33.90;;;;;;10369813;28;20595;-68
2021/03/27 07:50:07;;;;;;;1.77;1.07;;;10.90;33.30;;;;;;10366494;28;20675;-68
2021/03/27 07:55:36;;;;;;;4.40;2.60;;;10.80;34.00;;;;;;10369478;28;20304;-68
2021/03/27 08:00:50;;;;;;;3.83;1.80;;;10.80;34.60;;;;;;10367003;28;20230;-68
2021/03/27 08:06:11;;;;;;;1.47;1.37;;;10.80;35.00;;;;;;10366909;28;20230;-68
2021/03/27 08:11:31;;;;;;;0.90;0.90;;;10.90;35.60;;;;;;10370077;28;20241;-68
2021/03/27 08:16:50;;;;;;;1.00;0.90;;;11.10;35.30;;;;;;10368794;28;20230;-68
2021/03/27 08:22:09;;;;;;;1.30;1.17;;;11.10;35.10;;;;;;10362486;28;20733;-68
2021/03/27 08:27:37;;;;;;;0.90;0.90;;;11.20;35.30;;;;;;10369085;28;20571;-68
2021/03/27 08:33:10;;;;;;;0.80;0.80;;;11.30;36.10;;;;;;10371122;28;20231;-69
2021/03/27 08:38:33;;;;;;;0.90;0.90;;;11.30;34.70;;;;;;10363582;28;20626;-69
2021/03/27 08:43:59;;;;;;;0.80;0.80;;;11.30;34.70;;;;;;10364350;28;20230;-69
2021/03/27 08:49:46;;;;;;;0.60;0.60;;;11.40;34.50;;;;;;10406449;28;20228;-69
2021/03/27 08:55:16;;;;;;;0.60;0.60;;;11.30;34.10;;;;;;10369186;28;20710;-69
2021/03/27 09:01:05;;;;;;;0.87;0.70;;;11.30;34.20;;;;;;10400992;28;20229;-69
2021/03/27 09:06:37;;;;;;;0.70;0.70;;;11.30;33.50;;;;;;10363760;28;20325;-69
2021/03/27 09:12:04;;;;;;;1.13;0.70;;;11.30;33.30;;;;;;10363126;28;20309;-69
2021/03/27 09:17:39;;;;;;;0.87;0.77;;;11.30;33.50;;;;;;10364070;28;20279;-72
2021/03/27 09:23:06;;;;;;;0.80;0.80;;;11.40;34.30;;;;;;10364281;28;20607;-72
2021/03/27 09:28:23;;;;;;;0.70;0.70;;;11.60;33.60;;;;;;10367097;28;20238;-71
2021/03/27 09:33:27;;;;;;;1.00;0.73;;;11.80;32.40;;;;;;10369983;28;20226;-71
2021/03/27 09:38:53;;;;;;;0.60;0.60;;;11.90;32.20;;;;;;10366964;28;20272;-71
2021/03/27 09:44:46;;;;;;;0.60;0.60;;;11.90;32.20;;;;;;10364746;28;20231;-71
2021/03/27 09:50:15;;;;;;;0.73;0.60;;;11.80;32.10;;;;;;10363952;28;20226;-71
2021/03/27 09:55:42;;;;;;;0.93;0.80;;;11.90;31.60;;;;;;10361264;28;20678;-71
2021/03/27 10:01:06;;;;;;;0.70;0.70;;;11.80;30.90;;;;;;10363336;28;20784;-71
2021/03/27 10:06:42;;;;;;;0.90;0.80;;;11.80;31.00;;;;;;10358074;28;20316;-71
2021/03/27 10:11:49;;;;;;;1.30;0.77;;;11.70;30.90;;;;;;10357621;28;20245;-71
2021/03/27 10:16:57;;;;;;;1.20;0.90;;;11.70;31.10;;;;;;10365060;28;20726;-71
2021/03/27 10:22:22;;;;;;;0.80;0.80;;;11.70;31.10;;;;;;10364179;28;20534;-71
2021/03/27 10:27:43;;;;;;;1.03;0.97;;;11.80;31.50;;;;;;10366583;28;20226;-71
2021/03/27 10:33:00;;;;;;;1.10;1.00;;;11.90;31.20;;;;;;10364152;28;20258;-71
2021/03/27 10:38:08;;;;;;;0.87;0.87;;;11.90;31.10;;;;;;10405379;28;20697;-71
2021/03/27 10:43:32;;;;;;;0.80;0.77;;;12.00;31.00;;;;;;10381649;28;20230;-71
2021/03/27 10:49:08;;;;;;;1.73;1.20;;;12.10;31.10;;;;;;10363991;28;20234;-71
2021/03/27 10:54:47;;;;;;;0.80;0.80;;;12.10;31.10;;;;;;10385253;28;20321;-71
2021/03/27 11:00:03;;;;;;;1.00;0.90;;;12.20;30.40;;;;;;10404313;28;20229;-71
2021/03/27 11:05:32;;;;;;;0.90;0.90;;;12.20;30.10;;;;;;10385892;28;20224;-71
2021/03/27 11:11:14;;;;;;;0.87;0.87;;;12.20;30.00;;;;;;10403286;28;20233;-71
2021/03/27 11:16:28;;;;;;;1.10;1.00;;;12.20;30.10;;;;;;10402082;28;20232;-71
2021/03/27 11:22:02;;;;;;;0.90;0.90;;;12.20;30.30;;;;;;10417644;28;20321;-71
2021/03/27 11:27:37;;;;;;;1.10;1.00;;;12.30;30.60;;;;;;10405746;28;20279;-70
2021/03/27 11:32:46;;;;;;;1.57;0.90;;;12.50;30.90;;;;;;10381210;28;20219;-70
2021/03/27 11:38:04;;;;;;;1.47;1.00;;;12.80;29.90;;;;;;10370640;28;20227;-71
2021/03/27 11:43:31;;;;;;;1.07;0.83;;;13.00;29.60;;;;;;10407606;28;20304;-71
2021/03/27 11:48:47;;;;;;;0.80;0.80;;;13.00;29.40;;;;;;10387585;28;20245;-70
2021/03/27 11:54:01;;;;;;;0.80;0.80;;;13.00;29.10;;;;;;10365180;28;20226;-71
2021/03/27 12:04:58;;;;;;;2.40;1.40;;;13.10;28.40;;;;;;10385611;28;20236;-71
2021/03/27 12:10:13;;;;;;;2.20;1.93;;;13.00;28.60;;;;;;10411074;28;20728;-71
2021/03/27 12:15:31;;;;;;;1.53;1.20;;;13.00;28.40;;;;;;10408680;28;20582;-70
2021/03/27 12:20:38;;;;;;;1.13;1.03;;;13.10;29.00;;;;;;10378733;28;20461;-71
2021/03/27 12:25:51;;;;;;;1.33;0.90;;;13.10;28.70;;;;;;10365876;28;20226;-70
2021/03/27 12:31:02;;;;;;;1.10;1.00;;;13.20;28.40;;;;;;10367026;28;20226;-71
2021/03/27 12:36:10;;;;;;;2.07;1.13;;;13.30;28.40;;;;;;10368930;28;20222;-70
2021/03/27 12:41:20;;;;;;;0.80;0.80;;;13.40;28.30;;;;;;10366120;28;20514;-71
2021/03/27 12:46:44;;;;;;;1.13;0.90;;;13.40;27.60;;;;;;10367487;28;20252;-71
2021/03/27 12:51:54;;;;;;;0.97;0.70;;;13.50;27.50;;;;;;10363937;28;20238;-70
2021/03/27 12:57:33;;;;;;;0.70;0.67;;;13.60;26.90;;;;;;10367270;28;20246;-70
2021/03/27 13:02:48;;;;;;;1.63;0.70;;;13.60;26.40;;;;;;10364411;28;20221;-70
2021/03/27 13:07:59;;;;;;;1.10;0.80;;;13.60;26.20;;;;;;10365084;28;20229;-70
2021/03/27 13:13:18;;;;;;;0.60;0.60;;;13.70;26.30;;;;;;10372417;28;20565;-70
2021/03/27 13:18:55;;;;;;;1.67;0.50;;;13.70;26.00;;;;;;10362458;28;20238;-70
2021/03/27 13:24:07;;;;;;;0.70;0.70;;;13.90;25.40;;;;;;10401576;28;20218;-71
2021/03/27 13:29:33;;;;;;;0.63;0.63;;;14.00;25.60;;;;;;10368423;28;20256;-71
2021/03/27 13:34:40;;;;;;;1.00;0.70;;;14.10;25.30;;;;;;10368292;28;20740;-71
2021/03/27 13:39:49;;;;;;;0.67;0.50;;;14.20;25.90;;;;;;10361945;28;20272;-71
2021/03/27 13:44:56;;;;;;;0.60;0.60;;;14.20;25.10;;;;;;10366902;28;20250;-70
2021/03/27 13:50:05;;;;;;;0.77;0.57;;;14.20;24.20;;;;;;10363926;28;20230;-70
2021/03/27 13:55:35;;;;;;;0.47;0.47;;;14.20;24.60;;;;;;10367507;28;20226;-71
2021/03/27 14:00:42;;;;;;;1.63;0.70;;;14.20;25.20;;;;;;10359767;28;20341;-70
2021/03/27 14:05:57;;;;;;;1.40;0.73;;;14.30;24.80;;;;;;10361507;28;20252;-70
2021/03/27 14:11:03;;;;;;;1.87;0.60;;;14.40;24.60;;;;;;10364142;28;20227;-71
2021/03/27 14:16:24;;;;;;;1.00;0.70;;;14.50;24.40;;;;;;10358671;28;20706;-71
2021/03/27 14:21:43;;;;;;;1.67;0.80;;;14.60;23.90;;;;;;10357145;28;20234;-72
2021/03/27 14:26:59;;;;;;;0.80;0.70;;;14.60;23.10;;;;;;10358451;28;20234;-69
2021/03/27 14:32:16;;;;;;;1.27;0.60;;;14.60;23.00;;;;;;10364628;28;20605;-70
2021/03/27 14:37:32;;;;;;;0.70;0.70;;;14.60;22.80;;;;;;10394454;28;20229;-69
2021/03/27 14:42:40;;;;;;;0.73;0.70;;;14.60;22.70;;;;;;10392984;28;20239;-70
2021/03/27 14:48:17;;;;;;;0.60;0.60;;;14.60;23.50;;;;;;10403761;28;20288;-69
2021/03/27 14:53:29;;;;;;;0.60;0.60;;;14.60;22.00;;;;;;10285761;28;20215;-69
2021/03/27 14:58:42;;;;;;;2.13;0.70;;;14.70;23.40;;;;;;10363991;28;20240;-70
2021/03/27 15:03:53;;;;;;;0.97;0.60;;;14.80;22.60;;;;;;10366259;28;20226;-69
2021/03/27 15:08:59;;;;;;;1.50;0.73;;;14.80;22.80;;;;;;10372236;28;20230;-69
2021/03/27 15:14:22;;;;;;;1.03;0.77;;;14.80;22.90;;;;;;10376470;28;20701;-69
2021/03/27 15:19:47;;;;;;;2.33;0.80;;;14.80;22.20;;;;;;10400753;28;20239;-70
2021/03/27 15:30:26;;;;;;;0.60;0.60;;;14.80;21.80;;;;;;10397476;28;20228;-69
2021/03/27 15:35:37;;;;;;;1.33;0.63;;;14.70;21.70;;;;;;10397935;28;20602;-69
2021/03/27 15:40:47;;;;;;;1.30;0.90;;;14.60;21.90;;;;;;10408550;28;20221;-70
2021/03/27 15:45:57;;;;;;;0.70;0.60;;;14.50;21.90;;;;;;10379231;28;20258;-69
2021/03/27 15:51:10;;;;;;;2.33;0.70;;;14.40;21.60;;;;;;10406067;28;20233;-69
2021/03/27 15:56:21;;;;;;;0.77;0.70;;;14.30;22.00;;;;;;10365636;28;20618;-70
2021/03/27 16:01:41;;;;;;;3.17;0.70;;;14.20;21.60;;;;;;10370692;28;20805;-70
2021/03/27 16:06:47;;;;;;;2.50;0.80;;;14.20;22.30;;;;;;10365347;28;20234;-70
2021/03/27 16:12:02;;;;;;;0.90;0.80;;;14.20;22.80;;;;;;10356701;28;20235;-70
2021/03/27 16:17:32;;;;;;;1.20;0.70;;;14.20;21.50;;;;;;10406777;28;20233;-71
2021/03/27 16:22:46;;;;;;;1.00;0.80;;;14.20;22.50;;;;;;10385550;28;20233;-69
2021/03/27 16:27:54;;;;;;;1.63;1.10;;;14.20;21.90;;;;;;10402047;28;20454;-69
2021/03/27 16:33:17;;;;;;;2.37;1.60;;;14.20;22.90;;;;;;10426339;28;20308;-70
2021/03/27 16:38:49;;;;;;;3.23;1.60;;;14.20;21.40;;;;;;10430000;28;20228;-70
2021/03/27 16:44:02;;;;;;;2.03;1.20;;;14.10;22.10;;;;;;10421053;28;20231;-70
2021/03/27 16:49:14;;;;;;;1.97;1.17;;;14.10;22.20;;;;;;10407706;28;20621;-70
2021/03/27 16:54:31;;;;;;;2.33;1.57;;;14.00;22.00;;;;;;10399947;28;20602;-70
2021/03/27 16:59:41;;;;;;;2.67;1.70;;;13.90;22.30;;;;;;10408240;28;20233;-70
2021/03/27 17:05:01;;;;;;;2.10;1.90;;;13.80;22.40;;;;;;10368688;28;20654;-70
2021/03/27 17:10:10;;;;;;;1.37;1.20;;;13.80;22.30;;;;;;10366270;28;20317;-69
2021/03/27 17:15:16;;;;;;;1.47;1.00;;;13.70;22.00;;;;;;10356409;28;20600;-69
2021/03/27 17:20:43;;;;;;;2.67;1.90;;;13.70;22.40;;;;;;10365992;28;20306;-69
2021/03/27 17:26:08;;;;;;;1.20;1.10;;;13.60;21.90;;;;;;10362052;28;20727;-69
2021/03/27 17:31:19;;;;;;;3.00;2.70;;;13.50;21.40;;;;;;10354481;28;20606;-69
2021/03/27 17:36:29;;;;;;;1.50;1.27;;;13.40;21.80;;;;;;10365763;28;20284;-69
2021/03/27 17:41:38;;;;;;;2.30;1.30;;;13.40;22.00;;;;;;10365898;28;20241;-69
2021/03/27 17:46:49;;;;;;;1.73;1.20;;;13.30;22.40;;;;;;10362531;28;20695;-69
2021/03/27 17:51:57;;;;;;;2.20;1.07;;;13.30;22.50;;;;;;10366647;28;20325;-69
2021/03/27 17:57:05;;;;;;;1.70;1.00;;;13.20;22.40;;;;;;10363568;28;20272;-69
2021/03/27 18:02:18;;;;;;;1.20;1.10;;;13.10;22.40;;;;;;10365666;28;20237;-69
2021/03/27 18:07:32;;;;;;;3.10;1.97;;;13.10;22.20;;;;;;10362611;28;20230;-69
2021/03/27 18:12:41;;;;;;;3.43;1.50;;;13.00;22.40;;;;;;10365503;28;20786;-69
2021/03/27 18:17:49;;;;;;;2.40;1.97;;;12.90;22.60;;;;;;10364619;28;20730;-69
2021/03/27 18:22:58;;;;;;;2.23;1.30;;;12.80;22.80;;;;;;10362385;28;20246;-69
2021/03/27 18:28:13;;;;;;;5.17;4.20;;;12.80;22.70;;;;;;10364966;28;20244;-69
2021/03/27 18:33:52;;;;;;;2.47;2.10;;;12.70;22.70;;;;;;10361598;28;20596;-69
2021/03/27 18:39:19;;;;;;;3.40;2.70;;;12.60;22.70;;;;;;10360425;28;20280;-69
2021/03/27 18:44:24;;;;;;;2.53;2.00;;;12.50;22.60;;;;;;10405280;28;20682;-69
2021/03/27 18:49:30;;;;;;;2.63;2.20;;;12.50;23.00;;;;;;10411455;28;20240;-69
2021/03/27 18:54:43;;;;;;;2.70;1.80;;;12.40;23.10;;;;;;10423803;28;20223;-69
2021/03/27 18:59:54;;;;;;;3.07;2.70;;;12.30;22.90;;;;;;10406748;28;20324;-69
2021/03/27 19:05:02;;;;;;;3.57;2.10;;;12.30;23.30;;;;;;10413966;28;20226;-69
2021/03/27 19:10:20;;;;;;;2.97;2.27;;;12.20;23.20;;;;;;10404745;28;20641;-69
2021/03/27 19:15:25;;;;;;;4.60;2.40;;;12.20;23.10;;;;;;10426762;28;20693;-69
2021/03/27 19:20:35;;;;;;;3.43;2.60;;;12.20;23.20;;;;;;10424724;28;20233;-69
2021/03/27 19:25:40;;;;;;;2.63;1.90;;;12.20;23.20;;;;;;10409582;28;20230;-69
2021/03/27 19:30:46;;;;;;;2.43;1.90;;;12.10;23.10;;;;;;10416920;28;20238;-69
2021/03/27 19:35:53;;;;;;;3.77;2.10;;;12.10;23.30;;;;;;10429291;28;20637;-69
2021/03/27 19:41:02;;;;;;;3.13;2.17;;;12.00;23.40;;;;;;10421969;28;20229;-69
2021/03/27 19:46:20;;;;;;;2.27;1.80;;;11.90;23.40;;;;;;10410246;28;20237;-69
2021/03/27 19:51:44;;;;;;;3.17;1.80;;;11.90;23.30;;;;;;10381958;28;20259;-69
2021/03/27 19:56:54;;;;;;;5.47;1.90;;;11.80;23.20;;;;;;10408302;28;20233;-69
2021/03/27 20:02:02;;;;;;;4.90;1.60;;;11.80;23.30;;;;;;10392304;28;20232;-68
2021/03/27 20:07:07;;;;;;;3.07;1.70;;;11.70;23.40;;;;;;10410649;28;20242;-68
2021/03/27 20:12:29;;;;;;;2.13;1.50;;;11.70;23.50;;;;;;10405602;28;20229;-68
2021/03/27 20:17:37;;;;;;;3.77;2.90;;;11.70;23.60;;;;;;10424134;28;20731;-68
2021/03/27 20:22:44;;;;;;;5.80;4.70;;;11.60;23.70;;;;;;10428315;28;20234;-68
2021/03/27 20:27:53;;;;;;;3.00;2.70;;;11.60;23.80;;;;;;10408226;28;20717;-68
2021/03/27 20:33:01;;;;;;;2.27;1.90;;;11.60;24.40;;;;;;10406897;28;20225;-68
2021/03/27 20:38:48;;;;;;;2.47;1.77;;;11.50;23.80;;;;;;10416319;28;20291;-68
2021/03/27 20:44:10;;;;;;;2.47;1.83;;;11.50;23.70;;;;;;10406664;28;20302;-68
2021/03/27 20:49:36;;;;;;;4.43;2.13;;;11.40;23.80;;;;;;10395031;28;20222;-68
2021/03/27 20:54:53;;;;;;;3.00;2.07;;;11.30;23.60;;;;;;10384446;28;20232;-68
2021/03/27 21:00:22;;;;;;;2.97;2.00;;;11.30;23.90;;;;;;10367209;28;20229;-68
2021/03/27 21:05:38;;;;;;;3.50;2.07;;;11.20;24.00;;;;;;10377156;28;20234;-68
2021/03/27 21:10:54;;;;;;;4.47;1.93;;;11.10;24.10;;;;;;10376244;28;20234;-68
2021/03/27 21:16:20;;;;;;;3.73;2.30;;;11.10;24.10;;;;;;10366086;28;20240;-68
2021/03/27 21:21:49;;;;;;;3.77;2.40;;;11.00;24.20;;;;;;10394737;28;20588;-68
2021/03/27 21:27:11;;;;;;;3.73;2.30;;;11.00;24.20;;;;;;10364263;28;20254;-68
2021/03/27 21:32:26;;;;;;;3.70;2.30;;;11.00;24.20;;;;;;10375274;28;20224;-70
2021/03/27 21:37:46;;;;;;;2.40;1.97;;;11.00;24.70;;;;;;10365205;28;20237;-70
2021/03/27 21:42:57;;;;;;;3.40;2.50;;;11.10;24.60;;;;;;10364930;28;20233;-70
2021/03/27 21:48:36;;;;;;;2.67;2.20;;;11.10;24.50;;;;;;10410185;28;20233;-70
2021/03/27 21:54:06;;;;;;;6.03;3.87;;;11.20;25.30;;;;;;10399483;28;20308;-69
2021/03/27 21:59:22;;;;;;;7.43;4.67;;;11.20;24.30;;;;;;10370646;28;20242;-70
2021/03/27 22:04:42;;;;;;;5.30;3.50;;;11.10;24.40;;;;;;10378475;28;20228;-70
2021/03/27 22:09:56;;;;;;;3.23;2.30;;;11.10;24.40;;;;;;10360865;28;20222;-70
2021/03/27 22:15:14;;;;;;;2.73;1.87;;;11.10;24.80;;;;;;10365475;28;20279;-70
2021/03/27 22:20:35;;;;;;;2.53;1.33;;;11.00;24.90;;;;;;10370077;28;20691;-69
2021/03/27 22:25:40;;;;;;;1.60;1.10;;;11.10;25.00;;;;;;10368012;28;20252;-70
2021/03/27 22:30:48;;;;;;;2.63;1.20;;;11.10;24.80;;;;;;10365800;28;20240;-70
2021/03/27 22:36:17;;;;;;;2.13;1.20;;;11.10;25.00;;;;;;10366865;28;20611;-70
2021/03/27 22:41:37;;;;;;;2.20;1.20;;;11.10;25.10;;;;;;10365453;28;20222;-69
2021/03/27 22:46:57;;;;;;;2.53;1.47;;;11.00;25.00;;;;;;10367097;28;20230;-70
2021/03/27 22:52:04;;;;;;;1.27;1.17;;;11.00;25.10;;;;;;10364972;28;20238;-70
2021/03/27 22:57:11;;;;;;;2.83;1.27;;;11.00;25.00;;;;;;10359965;28;20226;-69
2021/03/27 23:02:20;;;;;;;2.13;1.57;;;10.90;24.80;;;;;;10358735;28;20230;-69
2021/03/27 23:07:41;;;;;;;2.10;1.30;;;10.90;25.00;;;;;;10366220;28;20242;-70
2021/03/27 23:12:46;;;;;;;2.73;1.57;;;10.80;25.30;;;;;;10363013;28;20222;-70
2021/03/27 23:17:48;;;;;;;3.37;1.80;;;10.80;25.00;;;;;;10364266;28;20718;-69
2021/03/27 23:23:04;;;;;;;3.03;1.90;;;10.80;24.90;;;;;;10365066;28;20219;-69
2021/03/27 23:28:15;;;;;;;1.80;1.57;;;10.80;25.20;;;;;;10373570;28;20225;-69
2021/03/27 23:33:29;;;;;;;2.83;1.77;;;10.80;25.50;;;;;;10369253;28;20235;-69
2021/03/27 23:38:57;;;;;;;3.03;1.60;;;10.80;25.70;;;;;;10372492;28;20321;-70
2021/03/27 23:44:05;;;;;;;2.53;1.40;;;10.80;25.60;;;;;;10374021;28;20230;-70
2021/03/27 23:49:15;;;;;;;2.70;1.40;;;10.80;25.40;;;;;;10371424;28;20239;-70
2021/03/27 23:54:28;;;;;;;2.10;1.27;;;10.80;25.70;;;;;;10368729;28;20269;-69
2021/03/27 23:59:41;;;;;;;2.37;1.50;;;10.80;25.80;;;;;;10371357;28;20234;-69
